createdAt,value
2018-08-23T00:01:52.549Z,1.00
2018-08-23T00:04:25.185Z,1.00
2018-08-23T00:07:02.905Z,1.00
2018-08-23T00:09:38.328Z,1.00
2018-08-23T00:12:10.734Z,1.00
2018-08-23T00:14:43.285Z,1.00
2018-08-23T00:17:15.560Z,1.00
2018-08-23T00:19:48.866Z,1.00
2018-08-23T00:22:28.027Z,1.00
2018-08-23T00:24:59.964Z,1.00
2018-08-23T00:27:33.303Z,1.00
2018-08-23T00:30:05.870Z,1.00
2018-08-23T00:32:38.330Z,1.00
2018-08-23T00:35:15.335Z,1.00
2018-08-23T00:37:48.065Z,1.00
2018-08-23T00:40:20.035Z,1.00
2018-08-23T00:42:56.364Z,1.00
2018-08-23T00:45:28.700Z,1.00
2018-08-23T00:48:01.057Z,1.00
2018-08-23T00:51:04.522Z,1.00
2018-08-23T00:53:38.366Z,1.00
2018-08-23T00:56:18.547Z,1.00
2018-08-23T00:58:55.423Z,1.00
2018-08-23T01:01:27.458Z,1.00
2018-08-23T01:03:59.745Z,1.00
2018-08-23T01:06:45.554Z,1.00
2018-08-23T01:09:17.962Z,1.00
2018-08-23T01:11:50.473Z,1.00
2018-08-23T01:14:23.006Z,1.00
2018-08-23T01:17:07.043Z,1.00
2018-08-23T01:20:09.985Z,1.00
2018-08-23T01:22:50.363Z,1.00
2018-08-23T01:25:23.015Z,1.00
2018-08-23T01:27:55.632Z,1.00
2018-08-23T01:30:28.104Z,1.00
2018-08-23T01:33:00.780Z,1.00
2018-08-23T01:35:33.367Z,1.00
2018-08-23T01:38:05.328Z,1.00
2018-08-23T01:40:37.441Z,1.00
2018-08-23T01:43:09.854Z,1.00
2018-08-23T01:45:42.839Z,1.00
2018-08-23T01:48:15.483Z,1.00
2018-08-23T01:50:48.273Z,1.00
2018-08-23T01:53:21.869Z,1.00
2018-08-23T01:55:54.674Z,1.00
2018-08-23T01:58:26.647Z,1.00
2018-08-23T02:01:14.243Z,1.80
2018-08-23T02:03:46.810Z,2.10
2018-08-23T02:06:19.094Z,2.90
2018-08-23T02:08:51.928Z,3.30
2018-08-23T02:11:24.466Z,3.20
2018-08-23T02:13:56.729Z,4.00
2018-08-23T02:16:33.518Z,4.20
2018-08-23T02:19:05.533Z,4.80
2018-08-23T02:21:38.462Z,5.00
2018-08-23T02:24:11.109Z,5.60
2018-08-23T02:26:45.010Z,5.80
2018-08-23T02:29:22.392Z,6.10
2018-08-23T02:31:54.948Z,7.00
2018-08-23T02:34:31.443Z,7.40
2018-08-23T02:37:04.023Z,7.90
2018-08-23T02:39:36.023Z,8.30
2018-08-23T02:42:09.601Z,8.40
2018-08-23T02:44:42.142Z,9.00
2018-08-23T02:47:15.432Z,9.70
2018-08-23T02:49:48.408Z,9.90
2018-08-23T02:52:21.750Z,10.40
2018-08-23T02:54:54.208Z,10.80
2018-08-23T02:57:26.078Z,12.00
2018-08-23T02:59:58.826Z,11.40
2018-08-23T03:02:31.299Z,12.00
2018-08-23T03:05:04.659Z,12.60
2018-08-23T03:07:37.216Z,12.90
2018-08-23T03:10:09.668Z,13.70
2018-08-23T03:12:42.175Z,13.60
2018-08-23T03:15:15.497Z,14.30
2018-08-23T03:17:52.470Z,14.50
2018-08-23T03:20:25.200Z,14.60
2018-08-23T03:22:58.205Z,15.10
2018-08-23T03:25:30.502Z,15.10
2018-08-23T03:28:03.082Z,15.70
2018-08-23T03:30:35.652Z,16.10
2018-08-23T03:33:07.780Z,16.30
2018-08-23T03:35:40.449Z,16.60
2018-08-23T03:38:12.972Z,17.00
2018-08-23T03:40:45.870Z,17.20
2018-08-23T03:43:18.357Z,18.40
2018-08-23T03:45:50.919Z,18.00
2018-08-23T03:48:23.861Z,18.50
2018-08-23T03:50:56.258Z,18.70
2018-08-23T03:53:41.543Z,19.40
2018-08-23T03:56:14.584Z,20.30
2018-08-23T03:58:47.284Z,19.50
2018-08-23T04:01:19.660Z,19.60
2018-08-23T04:03:53.177Z,20.00
2018-08-23T04:06:34.657Z,20.00
2018-08-23T04:09:09.912Z,20.90
2018-08-23T04:11:42.552Z,20.80
2018-08-23T04:14:15.127Z,21.20
2018-08-23T04:16:47.317Z,21.20
2018-08-23T04:19:20.049Z,21.40
2018-08-23T04:21:52.689Z,21.50
2018-08-23T04:24:25.525Z,21.90
2018-08-23T04:26:57.938Z,21.80
2018-08-23T04:29:36.663Z,22.40
2018-08-23T04:32:09.351Z,22.80
2018-08-23T04:34:42.473Z,23.10
2018-08-23T04:37:15.055Z,23.30
2018-08-23T04:39:52.576Z,23.20
2018-08-23T04:42:25.620Z,23.20
2018-08-23T04:44:58.221Z,23.30
2018-08-23T04:47:30.635Z,23.30
2018-08-23T04:50:03.202Z,23.00
2018-08-23T04:52:35.483Z,22.80
2018-08-23T04:55:07.887Z,22.90
2018-08-23T04:57:40.245Z,23.30
2018-08-23T05:00:13.225Z,23.70
2018-08-23T05:02:45.475Z,23.80
2018-08-23T05:05:19.269Z,24.10
2018-08-23T05:07:51.702Z,24.50
2018-08-23T05:10:23.860Z,25.00
2018-08-23T05:12:56.234Z,24.90
2018-08-23T05:15:29.026Z,25.70
2018-08-23T05:18:01.865Z,26.10
2018-08-23T05:20:34.062Z,26.50
2018-08-23T05:23:06.745Z,26.70
2018-08-23T05:25:39.241Z,27.10
2018-08-23T05:28:18.258Z,27.60
2018-08-23T05:30:51.236Z,27.60
2018-08-23T05:33:24.505Z,27.90
2018-08-23T05:35:57.218Z,28.20
2018-08-23T05:38:30.023Z,28.60
2018-08-23T05:41:06.757Z,28.40
2018-08-23T05:43:39.518Z,28.90
2018-08-23T05:46:12.241Z,29.40
2018-08-23T05:48:44.960Z,29.30
2018-08-23T05:51:18.152Z,29.40
2018-08-23T05:53:52.420Z,29.50
2018-08-23T05:56:24.928Z,30.00
2018-08-23T05:59:03.028Z,30.40
2018-08-23T06:01:35.561Z,30.80
2018-08-23T06:04:08.195Z,31.20
2018-08-23T06:06:40.902Z,31.30
2018-08-23T06:09:17.597Z,31.70
2018-08-23T06:11:50.373Z,32.50
2018-08-23T06:14:23.468Z,32.50
2018-08-23T06:16:58.902Z,33.20
2018-08-23T06:19:31.584Z,33.90
2018-08-23T06:22:04.215Z,34.40
2018-08-23T06:24:36.720Z,34.80
2018-08-23T06:27:09.198Z,34.50
2018-08-23T06:29:41.943Z,34.70
2018-08-23T06:32:14.970Z,34.70
2018-08-23T06:34:53.203Z,34.50
2018-08-23T06:37:25.750Z,35.00
2018-08-23T06:39:58.419Z,35.60
2018-08-23T06:42:44.473Z,35.90
2018-08-23T06:45:16.964Z,36.00
2018-08-23T06:47:53.917Z,36.30
2018-08-23T06:50:27.712Z,36.70
2018-08-23T06:53:00.106Z,37.00
2018-08-23T06:55:35.850Z,37.00
2018-08-23T06:58:08.004Z,37.20
2018-08-23T07:00:40.524Z,37.30
2018-08-23T07:03:12.872Z,37.30
2018-08-23T07:05:45.640Z,37.30
2018-08-23T07:08:18.051Z,37.30
2018-08-23T07:10:50.929Z,37.50
2018-08-23T07:13:23.640Z,37.70
2018-08-23T07:16:02.076Z,37.90
2018-08-23T07:18:35.074Z,37.80
2018-08-23T07:21:07.423Z,38.00
2018-08-23T07:23:40.015Z,38.10
2018-08-23T07:26:12.235Z,38.30
2018-08-23T07:28:44.824Z,38.40
2018-08-23T07:31:17.417Z,38.30
2018-08-23T07:33:52.242Z,38.40
2018-08-23T07:36:31.169Z,38.60
2018-08-23T07:39:03.248Z,38.80
2018-08-23T07:41:35.714Z,39.10
2018-08-23T07:44:08.070Z,38.60
2018-08-23T07:46:40.215Z,39.00
2018-08-23T07:49:12.873Z,39.20
2018-08-23T07:51:45.877Z,39.60
2018-08-23T07:54:19.853Z,39.40
2018-08-23T07:56:52.444Z,39.10
2018-08-23T07:59:24.868Z,39.30
2018-08-23T08:01:57.036Z,39.50
2018-08-23T08:04:29.460Z,39.50
2018-08-23T08:07:02.268Z,39.40
2018-08-23T08:09:35.150Z,39.40
2018-08-23T08:12:11.705Z,39.20
2018-08-23T08:14:44.287Z,39.70
2018-08-23T08:17:21.328Z,39.50
2018-08-23T08:19:57.013Z,39.30
2018-08-23T08:22:29.520Z,40.10
2018-08-23T08:25:15.873Z,40.20
2018-08-23T08:27:48.704Z,40.40
2018-08-23T08:30:26.469Z,41.00
2018-08-23T08:32:58.792Z,40.70
2018-08-23T08:35:31.087Z,41.40
2018-08-23T08:38:03.371Z,41.60
2018-08-23T08:40:35.883Z,41.50
2018-08-23T08:43:08.296Z,41.50
2018-08-23T08:45:40.710Z,41.30
2018-08-23T08:48:35.634Z,42.20
2018-08-23T08:51:20.171Z,42.50
2018-08-23T08:53:52.764Z,42.60
2018-08-23T08:56:30.388Z,42.90
2018-08-23T08:59:03.014Z,42.70
2018-08-23T09:01:36.024Z,42.50
2018-08-23T09:04:08.289Z,42.50
2018-08-23T09:09:35.898Z,43.50
2018-08-23T09:12:09.645Z,43.40
2018-08-23T09:14:43.367Z,43.10
2018-08-23T09:17:29.412Z,43.90
2018-08-23T09:20:08.285Z,43.80
2018-08-23T09:22:45.242Z,43.80
2018-08-23T09:25:22.976Z,43.90
2018-08-23T09:27:55.693Z,44.10
2018-08-23T09:30:29.426Z,44.10
2018-08-23T09:33:06.644Z,44.60
2018-08-23T09:35:39.298Z,44.90
2018-08-23T09:38:16.064Z,44.90
2018-08-23T09:40:48.458Z,45.00
2018-08-23T09:43:20.820Z,45.20
2018-08-23T09:45:54.759Z,45.00
2018-08-23T09:48:27.295Z,45.70
2018-08-23T09:51:00.080Z,45.70
2018-08-23T09:53:32.548Z,45.50
2018-08-23T09:56:05.073Z,45.30
2018-08-23T09:58:42.243Z,45.50
2018-08-23T10:01:19.522Z,45.50
2018-08-23T10:03:56.195Z,45.80
2018-08-23T10:06:32.832Z,46.10
2018-08-23T10:09:17.200Z,45.80
2018-08-23T10:11:54.015Z,46.10
2018-08-23T10:14:31.026Z,46.20
2018-08-23T10:17:07.953Z,46.80
2018-08-23T10:19:44.743Z,46.50
2018-08-23T10:22:34.285Z,46.30
2018-08-23T10:25:41.635Z,46.50
2018-08-23T10:28:15.373Z,47.30
2018-08-23T10:30:47.862Z,46.90
2018-08-23T10:33:20.531Z,47.20
2018-08-23T10:35:54.194Z,46.70
2018-08-23T10:38:27.644Z,47.30
2018-08-23T10:41:07.247Z,46.90
2018-08-23T10:43:47.846Z,47.30
2018-08-23T10:46:20.220Z,47.90
2018-08-23T10:48:52.563Z,47.30
2018-08-23T10:51:25.183Z,47.00
2018-08-23T10:53:57.577Z,47.20
2018-08-23T10:56:30.153Z,47.40
2018-08-23T10:59:02.559Z,47.90
2018-08-23T11:01:34.809Z,47.90
2018-08-23T11:04:08.305Z,47.20
2018-08-23T11:06:45.278Z,48.20
2018-08-23T11:09:22.098Z,48.60
2018-08-23T11:11:54.432Z,48.20
2018-08-23T11:14:31.128Z,48.70
2018-08-23T11:17:07.933Z,49.30
2018-08-23T11:19:45.259Z,49.60
2018-08-23T11:22:17.828Z,50.30
2018-08-23T11:24:50.331Z,50.60
2018-08-23T11:27:22.747Z,50.50
2018-08-23T11:29:55.101Z,50.70
2018-08-23T11:32:27.298Z,50.80
2018-08-23T11:34:59.930Z,51.10
2018-08-23T11:37:32.393Z,50.90
2018-08-23T11:40:04.655Z,50.90
2018-08-23T11:42:36.914Z,50.80
2018-08-23T11:45:09.420Z,50.70
2018-08-23T11:47:41.928Z,50.80
2018-08-23T11:50:14.423Z,50.70
2018-08-23T11:52:46.545Z,50.20
2018-08-23T11:55:18.999Z,50.00
2018-08-23T11:57:52.008Z,49.10
2018-08-23T12:00:24.525Z,49.00
2018-08-23T12:02:57.617Z,48.80
2018-08-23T12:05:29.940Z,48.30
2018-08-23T12:08:02.308Z,47.80
2018-08-23T12:10:35.108Z,47.20
2018-08-23T12:13:07.502Z,46.70
2018-08-23T12:15:40.020Z,46.00
2018-08-23T12:18:12.871Z,46.10
2018-08-23T12:20:45.403Z,45.50
2018-08-23T12:23:17.835Z,45.20
2018-08-23T12:25:50.248Z,44.90
2018-08-23T12:28:27.243Z,44.60
2018-08-23T12:30:59.501Z,44.40
2018-08-23T12:33:31.849Z,44.30
2018-08-23T12:36:07.280Z,44.00
2018-08-23T12:38:44.447Z,43.60
2018-08-23T12:41:21.608Z,42.90
2018-08-23T12:43:54.100Z,42.80
2018-08-23T12:46:26.875Z,43.00
2018-08-23T12:48:59.908Z,42.50
2018-08-23T12:51:32.119Z,42.50
2018-08-23T12:54:04.559Z,43.00
2018-08-23T12:56:36.945Z,41.90
2018-08-23T12:59:09.538Z,42.10
2018-08-23T13:01:41.912Z,42.50
2018-08-23T13:04:14.162Z,42.00
2018-08-23T13:06:46.722Z,41.60
2018-08-23T13:09:19.293Z,41.40
2018-08-23T13:11:51.636Z,41.10
2018-08-23T13:14:23.768Z,41.10
2018-08-23T13:16:56.117Z,41.20
2018-08-23T13:19:28.701Z,41.20
2018-08-23T13:22:04.135Z,41.00
2018-08-23T13:24:41.137Z,40.60
2018-08-23T13:27:13.384Z,41.10
2018-08-23T13:29:45.932Z,41.40
2018-08-23T13:32:18.520Z,41.30
2018-08-23T13:34:50.960Z,43.60
2018-08-23T13:37:23.692Z,44.10
2018-08-23T13:39:56.325Z,41.60
2018-08-23T13:42:28.650Z,41.10
2018-08-23T13:45:01.293Z,40.60
2018-08-23T13:47:33.739Z,40.50
2018-08-23T13:50:07.416Z,40.20
2018-08-23T13:52:39.609Z,40.60
2018-08-23T13:55:11.793Z,40.40
2018-08-23T13:57:44.315Z,40.60
2018-08-23T14:00:20.902Z,39.50
2018-08-23T14:02:53.028Z,38.90
2018-08-23T14:05:25.253Z,38.90
2018-08-23T14:07:57.883Z,38.90
2018-08-23T14:10:30.108Z,39.40
2018-08-23T14:13:02.317Z,38.80
2018-08-23T14:15:39.031Z,38.90
2018-08-23T14:18:11.390Z,38.90
2018-08-23T14:20:43.789Z,38.60
2018-08-23T14:23:16.336Z,38.60
2018-08-23T14:25:48.560Z,38.00
2018-08-23T14:28:21.012Z,38.70
2018-08-23T14:30:53.351Z,38.30
2018-08-23T14:33:25.601Z,37.30
2018-08-23T14:35:57.993Z,37.20
2018-08-23T14:38:30.320Z,36.90
2018-08-23T14:41:02.624Z,37.40
2018-08-23T14:43:34.968Z,37.00
2018-08-23T14:46:11.719Z,37.30
2018-08-23T14:48:44.090Z,37.40
2018-08-23T14:51:19.093Z,36.40
2018-08-23T14:53:51.829Z,36.20
2018-08-23T14:56:28.867Z,36.30
2018-08-23T14:59:01.378Z,36.10
2018-08-23T15:01:33.697Z,35.70
2018-08-23T15:04:06.386Z,35.50
2018-08-23T15:06:38.709Z,35.10
2018-08-23T15:09:11.136Z,35.30
2018-08-23T15:11:43.357Z,35.20
2018-08-23T15:14:15.995Z,35.00
2018-08-23T15:16:48.512Z,35.00
2018-08-23T15:19:21.079Z,34.90
2018-08-23T15:21:53.929Z,35.30
2018-08-23T15:24:26.339Z,34.90
2018-08-23T15:26:58.949Z,34.70
2018-08-23T15:29:31.286Z,35.20
2018-08-23T15:32:03.628Z,35.00
2018-08-23T15:34:35.841Z,34.80
2018-08-23T15:37:08.599Z,34.90
2018-08-23T15:39:42.020Z,34.80
2018-08-23T15:42:14.716Z,34.70
2018-08-23T15:44:46.927Z,34.50
2018-08-23T15:47:19.526Z,34.60
2018-08-23T15:49:52.149Z,35.20
2018-08-23T15:52:24.328Z,34.90
2018-08-23T15:54:56.881Z,34.50
2018-08-23T15:57:29.205Z,34.50
2018-08-23T16:00:01.602Z,33.80
2018-08-23T16:02:33.728Z,34.20
2018-08-23T16:05:06.230Z,34.50
2018-08-23T16:07:38.621Z,34.40
2018-08-23T16:10:11.765Z,34.80
2018-08-23T16:12:44.281Z,34.50
2018-08-23T16:15:22.564Z,34.70
2018-08-23T16:18:03.797Z,34.90
2018-08-23T16:20:40.509Z,35.30
2018-08-23T16:23:13.810Z,35.40
2018-08-23T16:25:46.367Z,35.30
2018-08-23T16:28:18.867Z,35.50
2018-08-23T16:30:51.077Z,35.90
2018-08-23T16:33:23.392Z,35.70
2018-08-23T16:35:55.556Z,36.20
2018-08-23T16:38:27.676Z,35.80
2018-08-23T16:41:00.276Z,35.60
2018-08-23T16:43:32.597Z,36.10
2018-08-23T16:46:04.994Z,36.00
2018-08-23T16:48:37.508Z,36.10
2018-08-23T16:51:09.936Z,37.10
2018-08-23T16:53:42.700Z,36.90
2018-08-23T16:56:14.878Z,36.80
2018-08-23T16:58:47.452Z,37.00
2018-08-23T17:01:19.577Z,37.10
2018-08-23T17:03:55.119Z,37.50
2018-08-23T17:06:29.143Z,38.40
2018-08-23T17:09:01.547Z,38.80
2018-08-23T17:11:33.865Z,38.50
2018-08-23T17:14:06.133Z,39.00
2018-08-23T17:16:43.294Z,39.90
2018-08-23T17:19:15.552Z,38.80
2018-08-23T17:21:47.956Z,38.80
2018-08-23T17:24:20.380Z,38.80
2018-08-23T17:26:53.145Z,39.10
2018-08-23T17:29:25.905Z,37.70
2018-08-23T17:31:58.151Z,38.20
2018-08-23T17:34:31.389Z,39.90
2018-08-23T17:37:03.739Z,39.70
2018-08-23T17:39:36.239Z,37.30
2018-08-23T17:42:08.589Z,39.10
2018-08-23T17:44:41.362Z,40.10
2018-08-23T17:47:17.213Z,38.90
2018-08-23T17:49:49.934Z,39.30
2018-08-23T17:52:22.580Z,38.20
2018-08-23T17:54:55.044Z,38.70
2018-08-23T17:57:27.336Z,39.70
2018-08-23T17:59:59.527Z,40.30
2018-08-23T18:02:31.915Z,39.80
2018-08-23T18:05:04.899Z,37.30
2018-08-23T18:07:37.948Z,36.70
2018-08-23T18:10:10.496Z,37.00
2018-08-23T18:12:42.606Z,36.90
2018-08-23T18:15:15.022Z,34.50
2018-08-23T18:17:47.535Z,35.70
2018-08-23T18:20:20.076Z,34.40
2018-08-23T18:22:52.635Z,34.00
2018-08-23T18:25:25.833Z,34.20
2018-08-23T18:27:58.277Z,34.10
2018-08-23T18:30:30.345Z,33.60
2018-08-23T18:33:02.991Z,35.50
2018-08-23T18:35:35.374Z,36.80
2018-08-23T18:38:07.631Z,39.90
2018-08-23T18:40:40.166Z,37.80
2018-08-23T18:43:12.624Z,38.30
2018-08-23T18:45:44.611Z,42.80
2018-08-23T18:48:17.380Z,42.30
2018-08-23T18:50:49.815Z,43.30
2018-08-23T18:53:22.363Z,42.90
2018-08-23T18:55:54.953Z,40.80
2018-08-23T18:58:27.429Z,39.30
2018-08-23T19:00:59.584Z,38.90
2018-08-23T19:03:31.919Z,38.10
2018-08-23T19:06:04.748Z,37.80
2018-08-23T19:08:37.061Z,38.70
2018-08-23T19:11:09.560Z,37.80
2018-08-23T19:13:42.208Z,37.00
2018-08-23T19:16:19.081Z,35.80
2018-08-23T19:18:51.319Z,34.50
2018-08-23T19:21:23.719Z,34.50
2018-08-23T19:23:56.375Z,34.60
2018-08-23T19:26:28.963Z,34.50
2018-08-23T19:29:01.377Z,33.20
2018-08-23T19:31:33.929Z,32.90
2018-08-23T19:34:06.323Z,33.70
2018-08-23T19:36:38.576Z,34.10
2018-08-23T19:39:14.166Z,34.40
2018-08-23T19:41:46.430Z,35.60
2018-08-23T19:44:18.843Z,35.30
2018-08-23T19:46:55.935Z,34.30
2018-08-23T19:49:32.565Z,32.80
2018-08-23T19:52:04.929Z,33.70
2018-08-23T19:54:37.261Z,33.10
2018-08-23T19:57:09.442Z,33.50
2018-08-23T19:59:41.554Z,32.10
2018-08-23T20:02:14.160Z,31.70
2018-08-23T20:04:46.940Z,31.30
2018-08-23T20:07:19.719Z,30.50
2018-08-23T20:09:52.052Z,30.50
2018-08-23T20:12:24.425Z,30.40
2018-08-23T20:14:56.746Z,29.70
2018-08-23T20:17:29.011Z,28.80
2018-08-23T20:20:01.363Z,28.30
2018-08-23T20:22:33.604Z,28.20
2018-08-23T20:25:06.050Z,27.60
2018-08-23T20:27:38.223Z,27.80
2018-08-23T20:30:10.596Z,27.20
2018-08-23T20:32:42.844Z,27.50
2018-08-23T20:35:15.433Z,26.70
2018-08-23T20:37:47.624Z,26.90
2018-08-23T20:40:19.771Z,26.20
2018-08-23T20:42:52.087Z,25.00
2018-08-23T20:45:24.281Z,24.70
2018-08-23T20:47:56.491Z,24.90
2018-08-23T20:50:28.993Z,23.90
2018-08-23T20:53:01.827Z,23.70
2018-08-23T20:55:34.273Z,23.30
2018-08-23T20:58:06.572Z,23.50
2018-08-23T21:00:38.950Z,23.70
2018-08-23T21:03:11.164Z,23.50
2018-08-23T21:05:44.004Z,23.50
2018-08-23T21:08:16.613Z,23.50
2018-08-23T21:10:48.737Z,24.10
2018-08-23T21:13:20.944Z,24.10
2018-08-23T21:15:53.126Z,23.70
2018-08-23T21:18:25.907Z,24.20
2018-08-23T21:20:58.257Z,22.80
2018-08-23T21:23:31.020Z,22.40
2018-08-23T21:26:03.675Z,22.80
2018-08-23T21:28:35.758Z,22.90
2018-08-23T21:31:08.178Z,23.60
2018-08-23T21:33:41.197Z,22.00
2018-08-23T21:36:13.382Z,21.60
2018-08-23T21:38:45.623Z,21.20
2018-08-23T21:41:17.856Z,20.00
2018-08-23T21:43:50.403Z,20.30
2018-08-23T21:46:22.924Z,19.20
2018-08-23T21:48:55.251Z,19.00
2018-08-23T21:51:27.615Z,17.60
2018-08-23T21:53:59.917Z,16.20
2018-08-23T21:56:32.363Z,16.00
2018-08-23T21:59:04.462Z,16.10
2018-08-23T22:01:37.440Z,16.20
2018-08-23T22:04:09.659Z,16.10
2018-08-23T22:06:41.984Z,16.70
2018-08-23T22:09:14.447Z,16.20
2018-08-23T22:11:46.928Z,15.10
2018-08-23T22:14:19.493Z,14.40
2018-08-23T22:16:52.483Z,14.80
2018-08-23T22:19:24.513Z,14.80
2018-08-23T22:21:57.192Z,14.50
2018-08-23T22:24:29.661Z,14.30
2018-08-23T22:27:01.984Z,13.60
2018-08-23T22:29:34.565Z,13.60
2018-08-23T22:32:06.896Z,13.40
2018-08-23T22:34:39.308Z,14.20
2018-08-23T22:37:11.669Z,14.80
2018-08-23T22:39:44.449Z,14.40
2018-08-23T22:42:16.887Z,13.80
2018-08-23T22:44:49.307Z,13.90
2018-08-23T22:47:21.870Z,14.00
2018-08-23T22:49:54.462Z,14.30
2018-08-23T22:52:26.844Z,14.60
2018-08-23T22:54:59.086Z,14.50
2018-08-23T22:57:31.822Z,14.20
2018-08-23T23:00:04.400Z,14.30
2018-08-23T23:02:40.438Z,13.70
2018-08-23T23:05:12.793Z,13.90
2018-08-23T23:07:45.753Z,13.60
2018-08-23T23:10:18.263Z,13.30
2018-08-23T23:12:50.759Z,11.80
2018-08-23T23:15:27.172Z,11.70
2018-08-23T23:17:59.583Z,12.20
2018-08-23T23:20:31.695Z,12.20
2018-08-23T23:23:04.547Z,12.70
2018-08-23T23:25:37.075Z,11.30
2018-08-23T23:28:10.068Z,12.20
2018-08-23T23:30:42.296Z,12.10
2018-08-23T23:33:14.813Z,11.80
2018-08-23T23:35:47.116Z,12.10
2018-08-23T23:38:19.427Z,12.30
2018-08-23T23:40:51.631Z,12.40
2018-08-23T23:43:23.978Z,12.40
2018-08-23T23:45:56.455Z,12.30
2018-08-23T23:48:28.903Z,11.50
2018-08-23T23:51:01.932Z,11.90
2018-08-23T23:53:34.312Z,10.40
2018-08-23T23:56:06.554Z,10.60
2018-08-23T23:58:38.638Z,10.30
